createdAt,value
2023-03-15T00:00:06.448Z,0.60
2023-03-15T00:02:34.007Z,0.50
2023-03-15T00:05:01.973Z,0.40
2023-03-15T00:07:31.684Z,0.50
2023-03-15T00:09:59.334Z,0.50
2023-03-15T00:12:26.950Z,0.40
2023-03-15T00:14:54.612Z,0.30
2023-03-15T00:17:22.971Z,0.30
2023-03-15T00:19:52.005Z,0.30
2023-03-15T00:22:19.680Z,0.20
2023-03-15T00:24:47.501Z,0.20
2023-03-15T00:27:16.306Z,0.20
2023-03-15T00:29:44.261Z,0.00
2023-03-15T00:32:12.142Z,0.10
2023-03-15T00:34:40.613Z,0.10
2023-03-15T00:37:08.682Z,0.00
2023-03-15T00:39:38.693Z,0.00
2023-03-15T00:42:09.378Z,0.00
2023-03-15T00:44:36.990Z,0.00
2023-03-15T00:47:04.799Z,-0.20
2023-03-15T00:49:33.086Z,-0.20
2023-03-15T00:52:02.915Z,-0.20
2023-03-15T00:54:33.615Z,-0.30
2023-03-15T00:57:02.328Z,-0.30
2023-03-15T00:59:34.971Z,-0.40
2023-03-15T01:02:03.970Z,-0.40
2023-03-15T01:04:31.854Z,-0.40
2023-03-15T01:06:59.888Z,-0.40
2023-03-15T01:09:28.135Z,-0.50
2023-03-15T01:11:56.015Z,0.50
2023-03-15T01:14:24.052Z,-0.50
2023-03-15T01:16:52.862Z,-0.60
2023-03-15T01:19:20.765Z,-0.60
2023-03-15T01:21:48.446Z,-0.70
2023-03-15T01:24:18.130Z,-0.70
2023-03-15T01:26:46.000Z,-0.70
2023-03-15T01:29:14.029Z,-0.10
2023-03-15T01:31:41.889Z,-0.80
2023-03-15T01:34:10.412Z,-0.80
2023-03-15T01:36:38.970Z,-0.90
2023-03-15T01:39:06.831Z,-1.00
2023-03-15T01:41:41.862Z,-1.00
2023-03-15T01:44:19.204Z,-1.00
2023-03-15T01:46:48.340Z,2.60
2023-03-15T01:49:29.316Z,-1.00
2023-03-15T01:54:31.651Z,-1.10
2023-03-15T01:57:09.168Z,-1.10
2023-03-15T01:59:44.835Z,-1.10
2023-03-15T02:02:15.026Z,-1.10
2023-03-15T02:04:49.915Z,-1.10
2023-03-15T02:07:23.510Z,-1.10
2023-03-15T02:09:59.114Z,-1.20
2023-03-15T02:12:32.921Z,-1.20
2023-03-15T02:15:05.204Z,-1.20
2023-03-15T02:17:39.429Z,-1.20
2023-03-15T02:21:00.730Z,-1.30
2023-03-15T02:23:29.444Z,-1.40
2023-03-15T02:25:57.990Z,-1.40
2023-03-15T02:28:29.074Z,-1.40
2023-03-15T02:30:58.432Z,-1.40
2023-03-15T02:33:30.635Z,-1.40
2023-03-15T02:36:10.142Z,-1.40
2023-03-15T02:38:38.014Z,-1.40
2023-03-15T02:41:06.800Z,-1.50
2023-03-15T02:43:36.190Z,-1.50
2023-03-15T02:46:05.136Z,-1.50
2023-03-15T02:48:35.178Z,-1.50
2023-03-15T02:51:04.330Z,-1.50
2023-03-15T02:53:31.945Z,-1.50
2023-03-15T02:55:59.944Z,-1.60
2023-03-15T02:58:28.303Z,-1.70
2023-03-15T03:00:56.029Z,-1.70
2023-03-15T03:05:53.104Z,-1.70
2023-03-15T03:08:20.839Z,-1.70
2023-03-15T03:10:48.469Z,-0.30
2023-03-15T03:13:16.489Z,-1.90
2023-03-15T03:15:45.856Z,-1.70
2023-03-15T03:18:15.075Z,-1.80
2023-03-15T03:20:46.500Z,-1.70
2023-03-15T03:23:14.540Z,-1.70
2023-03-15T03:25:42.785Z,-1.80
2023-03-15T03:28:10.831Z,-1.70
2023-03-15T03:30:38.442Z,-1.80
2023-03-15T03:33:06.222Z,-1.90
2023-03-15T03:35:33.970Z,-0.40
2023-03-15T03:38:01.507Z,-1.90
2023-03-15T03:40:34.986Z,-1.90
2023-03-15T03:43:06.022Z,-1.90
2023-03-15T03:45:33.820Z,-1.90
2023-03-15T03:48:01.972Z,-1.90
2023-03-15T03:50:31.886Z,-2.00
2023-03-15T03:52:59.857Z,-2.00
2023-03-15T03:55:34.095Z,-2.00
2023-03-15T03:58:01.798Z,-2.00
2023-03-15T04:00:58.545Z,-2.10
2023-03-15T04:03:31.153Z,-2.10
2023-03-15T04:06:12.432Z,-2.10
2023-03-15T04:08:44.825Z,-2.10
2023-03-15T04:11:17.721Z,0.10
2023-03-15T04:13:50.576Z,-2.10
2023-03-15T04:16:18.508Z,-0.90
2023-03-15T04:18:56.690Z,-2.20
2023-03-15T04:21:25.550Z,-2.30
2023-03-15T04:24:00.041Z,-2.20
2023-03-15T04:26:46.173Z,-2.30
2023-03-15T04:32:08.617Z,-2.30
2023-03-15T04:34:51.403Z,-2.30
2023-03-15T04:37:29.542Z,-2.30
2023-03-15T04:40:31.108Z,-2.30
2023-03-15T04:43:16.578Z,-2.20
2023-03-15T04:45:55.952Z,-2.10
2023-03-15T04:48:44.393Z,-2.00
2023-03-15T04:51:30.564Z,-1.90
2023-03-15T04:54:12.264Z,-1.80
2023-03-15T04:57:00.268Z,-1.80
2023-03-15T04:59:50.955Z,-1.70
2023-03-15T05:02:41.727Z,-1.70
2023-03-15T05:05:36.637Z,-1.70
2023-03-15T05:08:14.011Z,-1.60
2023-03-15T05:11:10.996Z,-1.10
2023-03-15T05:13:56.740Z,-1.50
2023-03-15T05:16:54.608Z,-1.40
2023-03-15T05:19:51.987Z,-1.40
2023-03-15T05:22:53.514Z,-1.30
2023-03-15T05:25:41.914Z,-1.30
2023-03-15T05:28:30.321Z,-1.30
2023-03-15T05:31:16.750Z,-1.20
2023-03-15T05:34:04.976Z,-1.20
2023-03-15T05:36:59.858Z,-1.20
2023-03-15T05:39:27.493Z,-1.10
2023-03-15T05:42:15.112Z,-1.10
2023-03-15T05:45:07.603Z,-1.10
2023-03-15T05:47:55.412Z,-1.10
2023-03-15T05:50:58.768Z,-0.60
2023-03-15T05:53:50.331Z,-1.10
2023-03-15T05:56:23.780Z,-1.10
2023-03-15T05:59:29.863Z,-0.60
2023-03-15T06:02:13.643Z,-1.10
2023-03-15T06:04:53.724Z,1.20
2023-03-15T06:07:26.409Z,-1.20
2023-03-15T06:09:55.614Z,-1.20
2023-03-15T06:12:23.388Z,-1.20
2023-03-15T06:14:51.980Z,-1.30
2023-03-15T06:17:19.606Z,-1.30
2023-03-15T06:19:47.482Z,-1.30
2023-03-15T06:22:15.820Z,-1.40
2023-03-15T06:24:52.962Z,-1.40
2023-03-15T06:27:24.338Z,-1.40
2023-03-15T06:29:54.143Z,-1.40
2023-03-15T06:32:23.854Z,-1.50
2023-03-15T06:34:52.435Z,-1.50
2023-03-15T06:37:34.125Z,-1.50
2023-03-15T06:40:11.506Z,-1.60
2023-03-15T06:42:41.824Z,-2.80
2023-03-15T06:45:12.407Z,-1.60
2023-03-15T06:47:40.310Z,-1.50
2023-03-15T06:50:10.505Z,-0.20
2023-03-15T06:52:40.815Z,-1.60
2023-03-15T06:55:10.379Z,-1.60
2023-03-15T06:57:38.155Z,-1.50
2023-03-15T07:00:11.323Z,-1.50
2023-03-15T07:02:39.408Z,-1.40
2023-03-15T07:05:07.422Z,-0.70
2023-03-15T07:07:34.806Z,-1.30
2023-03-15T07:10:03.074Z,-1.20
2023-03-15T07:12:30.775Z,1.10
2023-03-15T07:14:58.367Z,-1.00
2023-03-15T07:17:25.992Z,-1.00
2023-03-15T07:19:56.482Z,-0.90
2023-03-15T07:22:25.005Z,-0.80
2023-03-15T07:24:52.800Z,-0.10
2023-03-15T07:27:20.356Z,-0.70
2023-03-15T07:29:48.648Z,-0.60
2023-03-15T07:32:16.355Z,-0.20
2023-03-15T07:34:44.120Z,-0.50
2023-03-15T07:37:11.864Z,-0.50
2023-03-15T07:39:39.478Z,0.40
2023-03-15T07:42:07.371Z,-0.30
2023-03-15T07:44:41.270Z,-0.20
2023-03-15T07:47:08.982Z,-0.10
2023-03-15T07:49:36.676Z,0.00
2023-03-15T07:52:04.655Z,0.00
2023-03-15T07:54:34.361Z,0.10
2023-03-15T07:57:02.058Z,0.20
2023-03-15T07:59:31.099Z,0.30
2023-03-15T08:02:00.862Z,0.40
2023-03-15T08:04:30.116Z,0.40
2023-03-15T08:06:58.524Z,0.50
2023-03-15T08:09:26.476Z,0.90
2023-03-15T08:11:54.065Z,0.60
2023-03-15T08:14:21.618Z,0.60
2023-03-15T08:16:50.908Z,0.70
2023-03-15T08:19:19.647Z,0.70
2023-03-15T08:21:48.028Z,1.30
2023-03-15T08:24:15.858Z,0.80
2023-03-15T08:26:43.477Z,0.80
2023-03-15T08:29:11.283Z,0.90
2023-03-15T08:31:39.116Z,2.70
2023-03-15T08:34:06.614Z,1.00
2023-03-15T08:36:34.536Z,1.80
2023-03-15T08:39:05.646Z,1.10
2023-03-15T08:44:01.527Z,1.30
2023-03-15T08:46:29.410Z,1.30
2023-03-15T08:48:57.102Z,2.60
2023-03-15T08:51:26.379Z,3.00
2023-03-15T08:53:54.293Z,1.80
2023-03-15T08:56:21.980Z,2.20
2023-03-15T08:58:49.633Z,2.00
2023-03-15T09:01:17.870Z,2.00
2023-03-15T09:03:45.874Z,2.20
2023-03-15T09:06:13.884Z,2.10
2023-03-15T09:08:42.044Z,2.40
2023-03-15T09:11:09.844Z,2.80
2023-03-15T09:13:37.349Z,2.40
2023-03-15T09:16:05.125Z,2.50
2023-03-15T09:18:34.062Z,2.60
2023-03-15T09:21:02.509Z,2.70
2023-03-15T09:23:30.772Z,2.70
2023-03-15T09:25:58.337Z,2.80
2023-03-15T09:28:26.698Z,2.80
2023-03-15T09:30:54.896Z,3.00
2023-03-15T09:33:23.240Z,3.20
2023-03-15T09:35:54.870Z,3.10
2023-03-15T09:40:58.810Z,3.20
2023-03-15T09:43:54.672Z,3.30
2023-03-15T09:46:28.568Z,3.40
2023-03-15T09:49:34.482Z,3.50
2023-03-15T09:52:18.355Z,3.50
2023-03-15T09:55:05.545Z,3.60
2023-03-15T09:57:45.165Z,3.60
2023-03-15T10:00:17.952Z,3.70
2023-03-15T10:03:01.038Z,3.80
2023-03-15T10:05:42.034Z,3.90
2023-03-15T10:08:12.117Z,3.90
2023-03-15T10:10:50.493Z,4.20
2023-03-15T10:14:04.240Z,4.10
2023-03-15T10:16:31.846Z,4.30
2023-03-15T10:19:09.719Z,4.40
2023-03-15T10:22:19.630Z,4.60
2023-03-15T10:24:53.513Z,4.70
2023-03-15T10:27:29.743Z,4.80
2023-03-15T10:30:00.046Z,4.90
2023-03-15T10:32:37.586Z,5.10
2023-03-15T10:35:17.870Z,5.10
2023-03-15T10:37:47.886Z,5.20
2023-03-15T10:40:19.021Z,5.20
2023-03-15T10:42:52.111Z,5.50
2023-03-15T10:45:25.057Z,5.60
2023-03-15T10:47:59.937Z,5.70
2023-03-15T10:50:31.731Z,5.80
2023-03-15T10:53:11.301Z,5.90
2023-03-15T10:55:46.785Z,5.90
2023-03-15T10:58:31.829Z,6.10
2023-03-15T11:01:08.924Z,6.20
2023-03-15T11:03:37.986Z,6.30
2023-03-15T11:06:25.992Z,6.20
2023-03-15T11:11:22.992Z,6.30
2023-03-15T11:14:01.250Z,6.30
2023-03-15T11:16:36.224Z,6.30
2023-03-15T11:19:12.353Z,6.20
2023-03-15T11:21:41.343Z,6.20
2023-03-15T11:24:28.511Z,6.00
2023-03-15T11:27:03.890Z,6.00
2023-03-15T11:29:34.432Z,6.00
2023-03-15T11:32:12.809Z,6.00
2023-03-15T11:35:07.881Z,6.00
2023-03-15T11:38:06.188Z,6.00
2023-03-15T11:40:48.192Z,6.00
2023-03-15T11:43:25.193Z,6.00
2023-03-15T11:46:05.226Z,5.90
2023-03-15T11:49:12.202Z,6.00
2023-03-15T11:51:40.316Z,6.00
2023-03-15T11:54:15.579Z,5.90
2023-03-15T11:56:46.315Z,5.90
2023-03-15T11:59:20.543Z,5.90
2023-03-15T12:02:10.186Z,5.90
2023-03-15T12:04:44.121Z,5.80
2023-03-15T12:07:17.778Z,5.80
2023-03-15T12:10:03.770Z,5.80
2023-03-15T12:12:31.764Z,5.80
2023-03-15T12:15:14.924Z,5.80
2023-03-15T12:17:44.832Z,5.90
2023-03-15T12:20:12.647Z,5.90
2023-03-15T12:22:59.913Z,5.90
2023-03-15T12:25:54.787Z,6.00
2023-03-15T12:28:45.512Z,6.00
2023-03-15T12:31:14.453Z,6.00
2023-03-15T12:33:51.812Z,6.00
2023-03-15T12:36:45.972Z,6.20
2023-03-15T12:39:17.400Z,6.10
2023-03-15T12:41:47.523Z,6.20
2023-03-15T12:44:40.105Z,6.20
2023-03-15T12:47:12.615Z,6.30
2023-03-15T12:49:46.090Z,6.40
2023-03-15T12:52:16.878Z,6.40
2023-03-15T12:54:49.961Z,6.50
2023-03-15T12:57:30.267Z,6.50
2023-03-15T13:00:17.107Z,6.50
2023-03-15T13:02:48.621Z,6.60
2023-03-15T13:05:38.548Z,6.60
2023-03-15T13:08:25.810Z,6.60
2023-03-15T13:11:41.381Z,6.60
2023-03-15T13:14:33.103Z,6.60
2023-03-15T13:17:17.299Z,6.70
2023-03-15T13:23:21.861Z,6.60
2023-03-15T13:26:13.275Z,6.60
2023-03-15T13:28:48.156Z,6.60
2023-03-15T13:31:25.837Z,6.70
2023-03-15T13:34:08.489Z,6.70
2023-03-15T13:36:48.735Z,6.50
2023-03-15T13:39:25.970Z,6.50
2023-03-15T13:42:16.924Z,6.50
2023-03-15T13:44:44.922Z,6.50
2023-03-15T13:47:24.482Z,6.30
2023-03-15T13:49:52.997Z,6.30
2023-03-15T13:52:20.638Z,6.10
2023-03-15T13:54:48.965Z,6.30
2023-03-15T13:57:22.160Z,6.20
2023-03-15T14:00:00.609Z,6.20
2023-03-15T14:02:35.124Z,6.30
2023-03-15T14:08:24.517Z,6.30
2023-03-15T14:11:12.992Z,6.40
2023-03-15T14:13:53.085Z,6.40
2023-03-15T14:16:34.447Z,6.30
2023-03-15T14:22:27.485Z,6.40
2023-03-15T14:24:56.067Z,6.30
2023-03-15T14:27:27.879Z,6.20
2023-03-15T14:30:02.017Z,6.30
2023-03-15T14:32:32.750Z,6.30
2023-03-15T14:35:09.357Z,6.30
2023-03-15T14:37:41.326Z,6.30
2023-03-15T14:40:21.242Z,6.40
2023-03-15T14:42:50.824Z,6.40
2023-03-15T14:45:19.190Z,6.40
2023-03-15T14:47:57.144Z,6.40
2023-03-15T14:50:29.815Z,6.40
2023-03-15T14:52:59.200Z,6.40
2023-03-15T14:55:34.699Z,6.40
2023-03-15T14:58:13.665Z,6.30
2023-03-15T15:00:43.223Z,6.30
2023-03-15T15:03:41.317Z,6.20
2023-03-15T15:06:12.751Z,6.20
2023-03-15T15:08:44.281Z,6.20
2023-03-15T15:11:12.549Z,6.20
2023-03-15T15:13:41.237Z,7.20
2023-03-15T15:16:09.193Z,6.20
2023-03-15T15:18:37.174Z,6.20
2023-03-15T15:21:28.290Z,6.20
2023-03-15T15:23:59.206Z,6.20
2023-03-15T15:26:29.525Z,6.20
2023-03-15T15:28:57.637Z,6.20
2023-03-15T15:31:26.189Z,6.20
2023-03-15T15:33:54.863Z,6.20
2023-03-15T15:36:32.295Z,6.20
2023-03-15T15:39:07.144Z,6.20
2023-03-15T15:41:35.438Z,6.20
2023-03-15T15:44:03.140Z,3.60
2023-03-15T15:46:30.941Z,6.20
2023-03-15T15:48:59.020Z,6.20
2023-03-15T15:51:34.623Z,6.10
2023-03-15T15:54:02.749Z,6.00
2023-03-15T15:56:39.921Z,6.00
2023-03-15T15:59:13.480Z,6.00
2023-03-15T16:01:58.888Z,6.00
2023-03-15T16:04:28.592Z,6.00
2023-03-15T16:06:59.213Z,6.00
2023-03-15T16:09:28.744Z,6.00
2023-03-15T16:11:56.411Z,6.00
2023-03-15T16:14:24.152Z,6.00
2023-03-15T16:16:52.238Z,6.00
2023-03-15T16:19:20.162Z,6.10
2023-03-15T16:21:51.572Z,6.10
2023-03-15T16:24:26.637Z,6.00
2023-03-15T16:27:02.555Z,6.00
2023-03-15T16:29:38.330Z,6.00
2023-03-15T16:32:16.937Z,6.00
2023-03-15T16:34:50.245Z,6.00
2023-03-15T16:37:29.481Z,6.00
2023-03-15T16:40:01.007Z,6.00
2023-03-15T16:42:28.577Z,6.00
2023-03-15T16:44:56.193Z,6.00
2023-03-15T16:47:23.900Z,6.00
2023-03-15T16:49:51.626Z,6.00
2023-03-15T16:52:19.363Z,6.00
2023-03-15T16:54:48.829Z,6.00
2023-03-15T16:57:21.942Z,6.00
2023-03-15T16:59:50.735Z,6.00
2023-03-15T17:02:28.894Z,6.00
2023-03-15T17:04:58.013Z,6.00
2023-03-15T17:07:31.587Z,6.00
2023-03-15T17:10:03.192Z,6.00
2023-03-15T17:12:30.948Z,4.80
2023-03-15T17:15:00.469Z,6.00
2023-03-15T17:17:30.548Z,6.00
2023-03-15T17:19:59.589Z,6.00
2023-03-15T17:22:27.440Z,6.00
2023-03-15T17:27:35.741Z,6.00
2023-03-15T17:30:19.379Z,6.00
2023-03-15T17:32:47.603Z,6.00
2023-03-15T17:35:16.255Z,6.00
2023-03-15T17:37:45.780Z,6.00
2023-03-15T17:40:25.210Z,6.00
2023-03-15T17:42:55.565Z,6.00
2023-03-15T17:45:29.052Z,6.00
2023-03-15T17:47:57.244Z,6.00
2023-03-15T17:50:26.649Z,6.00
2023-03-15T17:53:18.621Z,6.00
2023-03-15T17:55:48.081Z,6.00
2023-03-15T17:58:23.481Z,6.00
2023-03-15T18:00:54.498Z,6.00
2023-03-15T18:03:23.377Z,6.00
2023-03-15T18:08:21.466Z,5.20
2023-03-15T18:10:50.803Z,5.90
2023-03-15T18:13:21.808Z,6.00
2023-03-15T18:15:50.261Z,5.90
2023-03-15T18:20:47.272Z,6.00
2023-03-15T18:23:17.054Z,6.00
2023-03-15T18:25:45.392Z,6.00
2023-03-15T18:28:13.346Z,6.00
2023-03-15T18:30:41.602Z,6.00
2023-03-15T18:33:11.470Z,6.00
2023-03-15T18:35:39.091Z,6.00
2023-03-15T18:38:07.391Z,6.00
2023-03-15T18:40:36.075Z,6.00
2023-03-15T18:43:05.673Z,6.00
2023-03-15T18:45:38.260Z,6.00
2023-03-15T18:48:07.113Z,5.90
2023-03-15T18:50:35.739Z,6.00
2023-03-15T18:55:34.989Z,6.00
2023-03-15T18:58:03.260Z,6.00
2023-03-15T19:00:37.053Z,6.00
2023-03-15T19:03:06.216Z,6.00
2023-03-15T19:05:36.971Z,6.00
2023-03-15T19:08:05.533Z,6.10
2023-03-15T19:10:33.815Z,6.00
2023-03-15T19:13:04.362Z,6.00
2023-03-15T19:18:01.502Z,6.00
2023-03-15T19:20:30.938Z,6.00
2023-03-15T19:22:58.545Z,6.10
2023-03-15T19:25:26.140Z,6.10
2023-03-15T19:27:53.703Z,6.10
2023-03-15T19:30:22.536Z,6.10
2023-03-15T19:32:51.235Z,6.10
2023-03-15T19:35:20.411Z,6.10
2023-03-15T19:37:48.688Z,6.10
2023-03-15T19:40:17.196Z,6.10
2023-03-15T19:42:45.607Z,6.20
2023-03-15T19:45:13.634Z,6.20
2023-03-15T19:47:41.688Z,6.20
2023-03-15T19:50:11.175Z,6.70
2023-03-15T19:52:45.807Z,6.20
2023-03-15T19:55:19.137Z,6.20
2023-03-15T19:57:47.588Z,6.30
2023-03-15T20:00:17.032Z,6.30
2023-03-15T20:02:45.697Z,6.30
2023-03-15T20:05:16.100Z,6.30
2023-03-15T20:07:44.290Z,6.30
2023-03-15T20:10:12.141Z,6.30
2023-03-15T20:12:42.634Z,6.30
2023-03-15T20:15:12.427Z,6.40
2023-03-15T20:20:11.529Z,6.30
2023-03-15T20:22:42.285Z,6.30
2023-03-15T20:25:14.892Z,6.40
2023-03-15T20:27:42.970Z,6.30
2023-03-15T20:30:13.000Z,6.40
2023-03-15T20:32:41.683Z,6.40
2023-03-15T20:35:10.265Z,6.40
2023-03-15T20:37:40.545Z,6.40
2023-03-15T20:40:11.850Z,6.40
2023-03-15T20:42:40.769Z,6.40
2023-03-15T20:45:10.070Z,6.40
2023-03-15T20:47:38.415Z,6.40
2023-03-15T20:50:07.644Z,6.40
2023-03-15T20:52:35.301Z,6.40
2023-03-15T20:55:03.803Z,6.40
2023-03-15T20:57:31.810Z,6.40
2023-03-15T21:00:02.574Z,6.40
2023-03-15T21:02:30.520Z,6.50
2023-03-15T21:04:58.105Z,6.50
2023-03-15T21:07:25.777Z,6.40
2023-03-15T21:12:21.758Z,6.50
2023-03-15T21:14:49.315Z,6.50
2023-03-15T21:17:16.919Z,6.50
2023-03-15T21:19:44.928Z,6.50
2023-03-15T21:22:12.678Z,6.50
2023-03-15T21:24:52.986Z,6.50
2023-03-15T21:27:22.623Z,6.50
2023-03-15T21:29:50.357Z,6.50
2023-03-15T21:32:18.108Z,6.60
2023-03-15T21:34:45.672Z,6.60
2023-03-15T21:37:13.406Z,6.50
2023-03-15T21:42:09.114Z,6.60
2023-03-15T21:44:39.384Z,6.60
2023-03-15T21:47:07.010Z,6.60
2023-03-15T21:49:35.138Z,6.70
2023-03-15T21:52:03.058Z,6.70
2023-03-15T21:54:31.831Z,6.70
2023-03-15T21:56:59.536Z,6.70
2023-03-15T21:59:28.212Z,6.60
2023-03-15T22:01:56.892Z,6.70
2023-03-15T22:06:53.304Z,6.70
2023-03-15T22:09:21.407Z,6.70
2023-03-15T22:11:49.557Z,6.70
2023-03-15T22:14:17.613Z,6.70
2023-03-15T22:16:45.061Z,6.70
2023-03-15T22:19:12.834Z,6.80
2023-03-15T22:21:42.536Z,6.80
2023-03-15T22:26:38.235Z,6.70
2023-03-15T22:31:34.020Z,6.70
2023-03-15T22:34:03.077Z,6.70
2023-03-15T22:39:02.464Z,6.60
2023-03-15T22:41:30.057Z,6.80
2023-03-15T22:43:58.512Z,6.80
2023-03-15T22:46:34.815Z,6.80
2023-03-15T22:49:03.463Z,6.80
2023-03-15T22:51:31.372Z,6.80
2023-03-15T22:53:59.777Z,6.90
2023-03-15T22:56:28.455Z,6.90
2023-03-15T22:58:56.225Z,6.90
2023-03-15T23:01:24.817Z,6.90
2023-03-15T23:03:52.510Z,6.10
2023-03-15T23:06:20.551Z,6.90
2023-03-15T23:08:48.351Z,6.90
2023-03-15T23:11:15.862Z,7.00
2023-03-15T23:13:43.465Z,7.00
2023-03-15T23:16:11.902Z,7.00
2023-03-15T23:18:40.049Z,7.00
2023-03-15T23:21:08.840Z,7.10
2023-03-15T23:23:36.603Z,7.10
2023-03-15T23:26:04.317Z,7.10
2023-03-15T23:28:33.248Z,7.20
2023-03-15T23:31:05.629Z,7.20
2023-03-15T23:33:34.089Z,7.20
2023-03-15T23:36:03.963Z,7.20
2023-03-15T23:38:34.631Z,7.20
2023-03-15T23:41:02.776Z,7.30
2023-03-15T23:43:31.356Z,7.30
2023-03-15T23:46:01.364Z,7.30
2023-03-15T23:50:58.410Z,7.30
2023-03-15T23:53:26.475Z,7.40
2023-03-15T23:55:54.052Z,7.40
2023-03-15T23:58:22.155Z,7.40
